sensor_id;sensor_type;location;lat;lon;timestamp;pressure;altitude;pressure_sealevel;temperature;humidity
33191;BME280;19554;42.652;23.364;2023-06-22T00:00:51;95038.66;;;22.19;54.90
33191;BME280;19554;42.652;23.364;2023-06-22T00:03:21;95038.88;;;22.14;54.50
33191;BME280;19554;42.652;23.364;2023-06-22T00:05:47;95041.56;;;22.14;54.48
33191;BME280;19554;42.652;23.364;2023-06-22T00:08:13;95032.47;;;22.06;54.48
33191;BME280;19554;42.652;23.364;2023-06-22T00:10:38;95039.47;;;22.07;54.50
33191;BME280;19554;42.652;23.364;2023-06-22T00:13:05;95040.72;;;22.10;54.78
33191;BME280;19554;42.652;23.364;2023-06-22T00:15:31;94974.84;;;21.69;54.45
33191;BME280;19554;42.652;23.364;2023-06-22T00:17:56;95041.56;;;22.14;54.57
33191;BME280;19554;42.652;23.364;2023-06-22T00:20:22;95033.41;;;22.14;54.42
33191;BME280;19554;42.652;23.364;2023-06-22T00:22:53;95024.41;;;22.10;54.38
33191;BME280;19554;42.652;23.364;2023-06-22T00:25:18;95030.88;;;22.05;54.47
33191;BME280;19554;42.652;23.364;2023-06-22T00:27:44;95016.75;;;21.99;54.67
33191;BME280;19554;42.652;23.364;2023-06-22T00:30:09;95020.41;;;21.91;54.80
33191;BME280;19554;42.652;23.364;2023-06-22T00:32:35;95003.94;;;21.84;55.23
33191;BME280;19554;42.652;23.364;2023-06-22T00:35:00;95008.84;;;21.79;55.23
33191;BME280;19554;42.652;23.364;2023-06-22T00:37:26;94977.19;;;21.55;55.65
33191;BME280;19554;42.652;23.364;2023-06-22T00:39:54;95010.41;;;21.64;55.86
33191;BME280;19554;42.652;23.364;2023-06-22T00:42:20;94984.78;;;21.49;55.90
33191;BME280;19554;42.652;23.364;2023-06-22T00:44:45;95010.16;;;21.69;55.77
33191;BME280;19554;42.652;23.364;2023-06-22T00:47:13;94956.91;;;21.36;56.26
33191;BME280;19554;42.652;23.364;2023-06-22T00:49:39;95000.44;;;21.68;56.18
33191;BME280;19554;42.652;23.364;2023-06-22T00:52:06;95008.22;;;21.69;56.47
33191;BME280;19554;42.652;23.364;2023-06-22T00:54:40;95011.31;;;21.68;56.48
33191;BME280;19554;42.652;23.364;2023-06-22T00:57:05;95007.94;;;21.59;56.33
33191;BME280;19554;42.652;23.364;2023-06-22T00:59:36;95011.72;;;21.54;56.32
33191;BME280;19554;42.652;23.364;2023-06-22T01:02:02;95005.28;;;21.46;56.25
33191;BME280;19554;42.652;23.364;2023-06-22T01:04:34;95005.28;;;21.46;56.18
33191;BME280;19554;42.652;23.364;2023-06-22T01:07:13;95009.50;;;21.44;56.25
33191;BME280;19554;42.652;23.364;2023-06-22T01:09:51;95019.31;;;21.48;56.40
33191;BME280;19554;42.652;23.364;2023-06-22T01:12:22;94924.81;;;20.98;56.16
33191;BME280;19554;42.652;23.364;2023-06-22T01:14:55;95017.66;;;21.44;56.60
33191;BME280;19554;42.652;23.364;2023-06-22T01:17:24;95017.09;;;21.26;57.70
33191;BME280;19554;42.652;23.364;2023-06-22T01:19:54;95017.78;;;21.23;57.90
33191;BME280;19554;42.652;23.364;2023-06-22T01:22:24;95012.50;;;21.26;57.77
33191;BME280;19554;42.652;23.364;2023-06-22T01:29:55;95025.25;;;21.26;58.63
33191;BME280;19554;42.652;23.364;2023-06-22T01:32:34;95028.88;;;21.30;58.66
33191;BME280;19554;42.652;23.364;2023-06-22T01:35:01;95026.59;;;21.32;58.33
33191;BME280;19554;42.652;23.364;2023-06-22T01:37:28;95033.94;;;21.44;58.03
33191;BME280;19554;42.652;23.364;2023-06-22T01:39:55;95025.44;;;21.45;57.63
33191;BME280;19554;42.652;23.364;2023-06-22T01:42:23;95019.03;;;21.53;57.57
33191;BME280;19554;42.652;23.364;2023-06-22T01:44:49;95024.06;;;21.51;57.42
33191;BME280;19554;42.652;23.364;2023-06-22T01:47:15;95028.09;;;21.58;57.32
33191;BME280;19554;42.652;23.364;2023-06-22T01:49:41;95026.50;;;21.57;57.42
33191;BME280;19554;42.652;23.364;2023-06-22T01:52:07;95038.50;;;21.56;57.25
33191;BME280;19554;42.652;23.364;2023-06-22T01:54:32;95027.91;;;21.50;57.65
33191;BME280;19554;42.652;23.364;2023-06-22T01:56:58;95031.75;;;21.49;57.70
33191;BME280;19554;42.652;23.364;2023-06-22T01:59:39;95015.94;;;21.39;57.58
33191;BME280;19554;42.652;23.364;2023-06-22T02:02:12;95018.44;;;21.44;57.85
33191;BME280;19554;42.652;23.364;2023-06-22T02:04:47;95039.66;;;21.55;57.50
33191;BME280;19554;42.652;23.364;2023-06-22T02:07:14;95045.78;;;21.51;57.63
33191;BME280;19554;42.652;23.364;2023-06-22T02:09:44;95048.63;;;21.43;57.72
33191;BME280;19554;42.652;23.364;2023-06-22T02:12:17;95050.50;;;21.26;58.11
33191;BME280;19554;42.652;23.364;2023-06-22T02:14:44;95019.00;;;21.10;58.08
33191;BME280;19554;42.652;23.364;2023-06-22T02:17:12;95047.53;;;21.32;57.92
33191;BME280;19554;42.652;23.364;2023-06-22T02:19:38;95038.13;;;21.29;57.46
33191;BME280;19554;42.652;23.364;2023-06-22T02:22:06;95001.69;;;21.02;57.31
33191;BME280;19554;42.652;23.364;2023-06-22T02:24:31;95034.78;;;21.20;57.16
33191;BME280;19554;42.652;23.364;2023-06-22T02:26:59;95036.94;;;21.14;57.42
33191;BME280;19554;42.652;23.364;2023-06-22T02:29:25;95039.78;;;21.05;57.61
33191;BME280;19554;42.652;23.364;2023-06-22T02:31:50;95052.72;;;20.96;58.01
33191;BME280;19554;42.652;23.364;2023-06-22T02:34:16;95033.25;;;20.94;58.17
33191;BME280;19554;42.652;23.364;2023-06-22T02:36:47;95022.66;;;20.89;58.46
33191;BME280;19554;42.652;23.364;2023-06-22T02:39:25;95027.63;;;20.87;57.84
33191;BME280;19554;42.652;23.364;2023-06-22T02:41:54;95034.41;;;20.81;57.95
33191;BME280;19554;42.652;23.364;2023-06-22T02:44:20;95038.28;;;20.80;58.28
33191;BME280;19554;42.652;23.364;2023-06-22T02:46:46;95041.66;;;20.77;58.37
33191;BME280;19554;42.652;23.364;2023-06-22T02:49:12;95032.19;;;20.71;58.46
33191;BME280;19554;42.652;23.364;2023-06-22T02:51:44;95047.09;;;20.65;58.59
33191;BME280;19554;42.652;23.364;2023-06-22T02:54:10;95057.84;;;20.61;58.70
33191;BME280;19554;42.652;23.364;2023-06-22T02:56:35;95047.66;;;20.58;58.85
33191;BME280;19554;42.652;23.364;2023-06-22T02:59:02;95047.66;;;20.58;59.69
33191;BME280;19554;42.652;23.364;2023-06-22T03:01:28;94973.78;;;20.12;58.71
33191;BME280;19554;42.652;23.364;2023-06-22T03:03:55;95045.97;;;20.53;57.93
33191;BME280;19554;42.652;23.364;2023-06-22T03:06:21;95051.63;;;20.61;58.81
33191;BME280;19554;42.652;23.364;2023-06-22T03:08:49;95025.75;;;20.51;58.71
33191;BME280;19554;42.652;23.364;2023-06-22T03:11:15;95038.28;;;20.68;58.91
33191;BME280;19554;42.652;23.364;2023-06-22T03:13:40;95056.91;;;20.81;59.01
33191;BME280;19554;42.652;23.364;2023-06-22T03:16:06;95044.59;;;20.84;58.72
33191;BME280;19554;42.652;23.364;2023-06-22T03:18:31;95054.28;;;20.97;58.74
33191;BME280;19554;42.652;23.364;2023-06-22T03:20:57;95065.13;;;21.10;58.24
33191;BME280;19554;42.652;23.364;2023-06-22T03:23:22;95068.16;;;21.20;57.80
33191;BME280;19554;42.652;23.364;2023-06-22T03:25:47;95081.03;;;21.36;58.30
33191;BME280;19554;42.652;23.364;2023-06-22T03:28:13;95080.09;;;21.44;57.58
33191;BME280;19554;42.652;23.364;2023-06-22T03:30:38;95075.16;;;21.62;56.80
33191;BME280;19554;42.652;23.364;2023-06-22T03:33:04;95048.22;;;21.57;55.77
33191;BME280;19554;42.652;23.364;2023-06-22T03:35:29;95060.31;;;21.71;55.59
33191;BME280;19554;42.652;23.364;2023-06-22T03:37:54;95077.75;;;21.86;55.48
33191;BME280;19554;42.652;23.364;2023-06-22T03:42:46;95083.50;;;22.13;54.67
33191;BME280;19554;42.652;23.364;2023-06-22T03:45:11;95081.97;;;22.28;54.22
33191;BME280;19554;42.652;23.364;2023-06-22T03:47:37;95084.69;;;22.43;53.83
33191;BME280;19554;42.652;23.364;2023-06-22T03:50:02;95063.19;;;22.38;53.84
33191;BME280;19554;42.652;23.364;2023-06-22T03:52:29;95091.50;;;22.69;53.75
33191;BME280;19554;42.652;23.364;2023-06-22T03:54:55;95059.13;;;22.64;53.50
33191;BME280;19554;42.652;23.364;2023-06-22T03:57:20;95069.91;;;22.76;53.84
33191;BME280;19554;42.652;23.364;2023-06-22T03:59:45;95103.97;;;23.02;53.07
33191;BME280;19554;42.652;23.364;2023-06-22T04:02:11;95094.09;;;23.13;52.84
33191;BME280;19554;42.652;23.364;2023-06-22T04:04:36;95097.41;;;23.22;52.34
33191;BME280;19554;42.652;23.364;2023-06-22T04:07:04;95097.13;;;23.27;52.17
33191;BME280;19554;42.652;23.364;2023-06-22T04:09:29;95102.16;;;23.25;52.42
33191;BME280;19554;42.652;23.364;2023-06-22T04:11:54;95094.03;;;23.09;52.81
33191;BME280;19554;42.652;23.364;2023-06-22T04:14:20;95097.03;;;22.88;53.76
33191;BME280;19554;42.652;23.364;2023-06-22T04:16:45;95089.19;;;23.03;53.91
33191;BME280;19554;42.652;23.364;2023-06-22T04:19:10;94997.69;;;22.63;53.56
33191;BME280;19554;42.652;23.364;2023-06-22T04:21:41;95085.25;;;23.35;53.44
33191;BME280;19554;42.652;23.364;2023-06-22T04:24:06;95089.84;;;23.51;53.06
33191;BME280;19554;42.652;23.364;2023-06-22T04:26:32;95046.31;;;23.35;53.04
33191;BME280;19554;42.652;23.364;2023-06-22T04:29:02;95074.06;;;23.79;52.35
33191;BME280;19554;42.652;23.364;2023-06-22T04:31:30;95071.13;;;23.88;52.36
33191;BME280;19554;42.652;23.364;2023-06-22T04:33:57;95066.16;;;23.94;52.62
33191;BME280;19554;42.652;23.364;2023-06-22T04:36:31;95061.53;;;23.75;53.49
33191;BME280;19554;42.652;23.364;2023-06-22T04:39:07;95063.88;;;23.57;54.10
33191;BME280;19554;42.652;23.364;2023-06-22T04:41:43;95065.25;;;23.67;53.39
33191;BME280;19554;42.652;23.364;2023-06-22T04:44:12;95063.81;;;23.53;54.17
33191;BME280;19554;42.652;23.364;2023-06-22T04:46:38;95068.34;;;23.46;54.82
33191;BME280;19554;42.652;23.364;2023-06-22T04:49:08;95065.88;;;23.79;54.70
33191;BME280;19554;42.652;23.364;2023-06-22T04:51:42;95066.16;;;23.94;53.61
33191;BME280;19554;42.652;23.364;2023-06-22T04:54:08;95068.47;;;23.92;53.75
33191;BME280;19554;42.652;23.364;2023-06-22T04:56:34;95050.13;;;23.69;54.02
33191;BME280;19554;42.652;23.364;2023-06-22T04:59:00;95062.22;;;23.91;53.64
33191;BME280;19554;42.652;23.364;2023-06-22T05:01:26;95061.59;;;23.78;53.04
33191;BME280;19554;42.652;23.364;2023-06-22T05:03:51;95085.25;;;24.17;53.41
33191;BME280;19554;42.652;23.364;2023-06-22T05:06:21;95087.84;;;24.29;52.38
33191;BME280;19554;42.652;23.364;2023-06-22T05:08:47;95023.09;;;23.80;52.64
33191;BME280;19554;42.652;23.364;2023-06-22T05:11:12;95090.03;;;24.43;52.11
33191;BME280;19554;42.652;23.364;2023-06-22T05:13:37;95090.41;;;24.41;52.48
33191;BME280;19554;42.652;23.364;2023-06-22T05:16:03;95082.63;;;24.66;52.09
33191;BME280;19554;42.652;23.364;2023-06-22T05:18:29;95073.81;;;24.76;51.34
33191;BME280;19554;42.652;23.364;2023-06-22T05:20:55;95078.75;;;24.94;51.89
33191;BME280;19554;42.652;23.364;2023-06-22T05:23:20;95073.75;;;25.26;50.64
33191;BME280;19554;42.652;23.364;2023-06-22T05:25:46;95065.50;;;25.22;50.10
33191;BME280;19554;42.652;23.364;2023-06-22T05:28:11;95087.75;;;25.21;50.10
33191;BME280;19554;42.652;23.364;2023-06-22T05:30:37;95033.91;;;24.95;50.43
33191;BME280;19554;42.652;23.364;2023-06-22T05:33:03;95089.75;;;25.24;50.00
33191;BME280;19554;42.652;23.364;2023-06-22T05:35:28;95102.00;;;25.34;50.17
33191;BME280;19554;42.652;23.364;2023-06-22T05:37:55;95104.88;;;25.18;50.61
33191;BME280;19554;42.652;23.364;2023-06-22T05:40:21;95069.66;;;25.13;50.35
33191;BME280;19554;42.652;23.364;2023-06-22T05:42:46;95106.84;;;25.47;49.96
33191;BME280;19554;42.652;23.364;2023-06-22T05:45:13;95110.00;;;25.23;51.04
33191;BME280;19554;42.652;23.364;2023-06-22T05:47:38;95106.03;;;25.17;50.28
33191;BME280;19554;42.652;23.364;2023-06-22T05:50:05;95120.88;;;25.46;49.61
33191;BME280;19554;42.652;23.364;2023-06-22T05:52:34;95127.69;;;25.59;49.43
33191;BME280;19554;42.652;23.364;2023-06-22T05:55:00;95126.72;;;25.74;48.89
33191;BME280;19554;42.652;23.364;2023-06-22T05:57:25;95109.53;;;25.77;48.93
33191;BME280;19554;42.652;23.364;2023-06-22T05:59:50;95118.28;;;26.20;48.23
33191;BME280;19554;42.652;23.364;2023-06-22T06:02:16;95117.97;;;26.70;47.15
33191;BME280;19554;42.652;23.364;2023-06-22T06:04:42;95105.66;;;26.94;45.59
33191;BME280;19554;42.652;23.364;2023-06-22T06:07:07;95107.03;;;27.22;45.36
33191;BME280;19554;42.652;23.364;2023-06-22T06:09:32;95109.13;;;27.46;44.30
33191;BME280;19554;42.652;23.364;2023-06-22T06:11:58;95102.63;;;27.76;43.63
33191;BME280;19554;42.652;23.364;2023-06-22T06:14:23;95071.19;;;27.59;43.57
33191;BME280;19554;42.652;23.364;2023-06-22T06:16:49;95103.13;;;28.06;43.13
33191;BME280;19554;42.652;23.364;2023-06-22T06:19:14;95100.44;;;28.28;42.64
33191;BME280;19554;42.652;23.364;2023-06-22T06:21:40;95101.22;;;28.35;42.80
33191;BME280;19554;42.652;23.364;2023-06-22T06:24:05;95096.97;;;28.52;41.70
33191;BME280;19554;42.652;23.364;2023-06-22T06:26:31;95100.50;;;28.53;41.23
33191;BME280;19554;42.652;23.364;2023-06-22T06:29:00;95106.78;;;28.53;41.95
33191;BME280;19554;42.652;23.364;2023-06-22T06:31:26;95096.47;;;28.07;42.24
33191;BME280;19554;42.652;23.364;2023-06-22T06:33:54;95099.09;;;27.79;43.26
33191;BME280;19554;42.652;23.364;2023-06-22T06:36:20;95010.81;;;27.48;43.31
33191;BME280;19554;42.652;23.364;2023-06-22T06:38:46;95033.47;;;27.31;44.12
33191;BME280;19554;42.652;23.364;2023-06-22T06:41:15;95097.22;;;27.90;43.45
33191;BME280;19554;42.652;23.364;2023-06-22T06:43:41;95090.22;;;28.25;42.90
33191;BME280;19554;42.652;23.364;2023-06-22T06:46:10;95082.38;;;28.27;42.68
33191;BME280;19554;42.652;23.364;2023-06-22T06:48:36;95078.84;;;28.26;42.83
33191;BME280;19554;42.652;23.364;2023-06-22T06:51:01;95088.50;;;27.74;44.29
33191;BME280;19554;42.652;23.364;2023-06-22T06:53:27;95083.16;;;28.17;43.09
33191;BME280;19554;42.652;23.364;2023-06-22T06:55:53;95080.03;;;28.36;43.43
33191;BME280;19554;42.652;23.364;2023-06-22T06:58:19;95068.25;;;28.07;43.77
33191;BME280;19554;42.652;23.364;2023-06-22T07:00:44;95059.63;;;28.16;42.72
33191;BME280;19554;42.652;23.364;2023-06-22T07:03:10;95041.41;;;27.57;44.42
33191;BME280;19554;42.652;23.364;2023-06-22T07:05:35;95048.81;;;27.46;44.59
33191;BME280;19554;42.652;23.364;2023-06-22T07:08:01;95016.19;;;27.20;43.92
33191;BME280;19554;42.652;23.364;2023-06-22T07:10:26;95075.91;;;27.65;44.03
33191;BME280;19554;42.652;23.364;2023-06-22T07:12:52;95067.97;;;27.39;44.87
33191;BME280;19554;42.652;23.364;2023-06-22T07:15:18;95084.28;;;27.17;46.24
33191;BME280;19554;42.652;23.364;2023-06-22T07:17:43;95061.56;;;27.13;45.56
33191;BME280;19554;42.652;23.364;2023-06-22T07:20:09;95056.91;;;27.25;45.49
33191;BME280;19554;42.652;23.364;2023-06-22T07:22:40;95053.19;;;27.69;44.81
33191;BME280;19554;42.652;23.364;2023-06-22T07:25:06;95069.81;;;28.08;43.83
33191;BME280;19554;42.652;23.364;2023-06-22T07:27:45;95078.84;;;28.26;43.79
33191;BME280;19554;42.652;23.364;2023-06-22T07:30:11;95071.47;;;28.63;42.81
33191;BME280;19554;42.652;23.364;2023-06-22T07:32:36;95071.88;;;28.75;42.49
33191;BME280;19554;42.652;23.364;2023-06-22T07:35:02;95063.63;;;28.79;42.55
33191;BME280;19554;42.652;23.364;2023-06-22T07:37:28;95037.31;;;28.74;42.55
33191;BME280;19554;42.652;23.364;2023-06-22T07:39:55;95067.56;;;28.99;42.30
33191;BME280;19554;42.652;23.364;2023-06-22T07:42:24;95047.50;;;28.88;41.38
33191;BME280;19554;42.652;23.364;2023-06-22T07:44:50;95076.94;;;29.09;41.88
33191;BME280;19554;42.652;23.364;2023-06-22T07:47:16;95065.19;;;28.80;41.54
33191;BME280;19554;42.652;23.364;2023-06-22T07:49:43;95065.94;;;28.91;42.06
33191;BME280;19554;42.652;23.364;2023-06-22T07:52:08;95017.69;;;28.47;42.34
33191;BME280;19554;42.652;23.364;2023-06-22T07:54:34;95080.09;;;28.90;41.97
33191;BME280;19554;42.652;23.364;2023-06-22T07:56:59;95021.63;;;28.61;42.02
33191;BME280;19554;42.652;23.364;2023-06-22T07:59:25;95078.50;;;28.89;42.33
33191;BME280;19554;42.652;23.364;2023-06-22T08:01:50;95068.31;;;28.82;42.73
33191;BME280;19554;42.652;23.364;2023-06-22T08:04:16;95051.06;;;28.99;42.80
33191;BME280;19554;42.652;23.364;2023-06-22T08:06:41;95042.00;;;28.81;42.34
33191;BME280;19554;42.652;23.364;2023-06-22T08:09:06;95053.41;;;28.69;43.02
33191;BME280;19554;42.652;23.364;2023-06-22T08:11:32;95059.69;;;28.80;43.16
33191;BME280;19554;42.652;23.364;2023-06-22T08:13:57;95053.81;;;28.99;42.30
33191;BME280;19554;42.652;23.364;2023-06-22T08:16:23;95061.25;;;29.17;42.58
33191;BME280;19554;42.652;23.364;2023-06-22T08:18:49;95049.47;;;29.16;41.98
33191;BME280;19554;42.652;23.364;2023-06-22T08:21:14;95055.34;;;29.15;42.23
33191;BME280;19554;42.652;23.364;2023-06-22T08:23:40;95031.00;;;29.02;42.31
33191;BME280;19554;42.652;23.364;2023-06-22T08:26:06;94980.03;;;28.66;41.98
33191;BME280;19554;42.652;23.364;2023-06-22T08:28:31;95046.28;;;29.25;42.32
33191;BME280;19554;42.652;23.364;2023-06-22T08:30:57;95030.94;;;29.35;40.75
33191;BME280;19554;42.652;23.364;2023-06-22T08:33:23;94974.44;;;29.16;41.31
33191;BME280;19554;42.652;23.364;2023-06-22T08:35:54;95033.25;;;29.50;39.75
33191;BME280;19554;42.652;23.364;2023-06-22T08:38:20;95044.66;;;29.45;39.23
33191;BME280;19554;42.652;23.364;2023-06-22T08:40:45;95049.44;;;29.23;39.60
33191;BME280;19554;42.652;23.364;2023-06-22T08:43:10;95049.44;;;29.13;39.91
33191;BME280;19554;42.652;23.364;2023-06-22T08:45:36;95043.94;;;29.13;40.50
33191;BME280;19554;42.652;23.364;2023-06-22T08:48:01;95060.44;;;29.13;41.76
33191;BME280;19554;42.652;23.364;2023-06-22T08:50:26;95051.81;;;29.14;41.54
33191;BME280;19554;42.652;23.364;2023-06-22T08:52:52;95053.31;;;29.29;40.30
33191;BME280;19554;42.652;23.364;2023-06-22T08:55:17;95050.25;;;29.10;40.24
33191;BME280;19554;42.652;23.364;2023-06-22T08:57:43;94861.22;;;27.76;41.35
33191;BME280;19554;42.652;23.364;2023-06-22T09:00:09;95045.91;;;29.09;41.51
33191;BME280;19554;42.652;23.364;2023-06-22T09:02:41;95037.56;;;29.51;41.20
33191;BME280;19554;42.652;23.364;2023-06-22T09:05:07;95034.38;;;29.57;40.81
33191;BME280;19554;42.652;23.364;2023-06-22T09:07:32;95028.88;;;29.60;40.35
33191;BME280;19554;42.652;23.364;2023-06-22T09:09:59;95028.06;;;29.67;40.36
33191;BME280;19554;42.652;23.364;2023-06-22T09:12:25;95030.38;;;29.79;39.99
33191;BME280;19554;42.652;23.364;2023-06-22T09:14:52;95022.47;;;29.88;40.70
33191;BME280;19554;42.652;23.364;2023-06-22T09:17:18;95023.56;;;30.05;39.99
33191;BME280;19554;42.652;23.364;2023-06-22T09:19:43;95029.00;;;30.12;38.67
33191;BME280;19554;42.652;23.364;2023-06-22T09:22:09;95029.31;;;30.25;38.44
33191;BME280;19554;42.652;23.364;2023-06-22T09:24:34;95012.47;;;30.16;38.89
33191;BME280;19554;42.652;23.364;2023-06-22T09:27:00;95026.09;;;30.37;38.69
33191;BME280;19554;42.652;23.364;2023-06-22T09:29:25;95026.19;;;30.27;38.00
33191;BME280;19554;42.652;23.364;2023-06-22T09:31:51;94998.56;;;29.71;38.11
33191;BME280;19554;42.652;23.364;2023-06-22T09:34:18;95031.84;;;29.94;37.84
33191;BME280;19554;42.652;23.364;2023-06-22T09:36:45;95031.78;;;30.09;37.16
33191;BME280;19554;42.652;23.364;2023-06-22T09:39:11;95030.19;;;30.08;36.74
33191;BME280;19554;42.652;23.364;2023-06-22T09:41:36;95045.16;;;30.07;35.62
33191;BME280;19554;42.652;23.364;2023-06-22T09:44:02;95030.16;;;30.15;35.84
33191;BME280;19554;42.652;23.364;2023-06-22T09:46:27;95024.66;;;30.18;35.86
33191;BME280;19554;42.652;23.364;2023-06-22T09:48:53;95038.72;;;30.31;36.27
33191;BME280;19554;42.652;23.364;2023-06-22T09:51:19;94999.47;;;30.16;36.26
33191;BME280;19554;42.652;23.364;2023-06-22T09:53:52;95039.22;;;30.19;37.15
33191;BME280;19554;42.652;23.364;2023-06-22T09:56:18;95028.41;;;30.42;36.23
33191;BME280;19554;42.652;23.364;2023-06-22T09:58:45;95029.09;;;30.57;36.39
33191;BME280;19554;42.652;23.364;2023-06-22T10:01:15;94946.88;;;30.04;36.65
33191;BME280;19554;42.652;23.364;2023-06-22T10:03:40;95007.13;;;30.50;36.21
33191;BME280;19554;42.652;23.364;2023-06-22T10:06:08;94992.25;;;30.40;36.15
33191;BME280;19554;42.652;23.364;2023-06-22T10:08:34;95015.69;;;30.59;37.47
33191;BME280;19554;42.652;23.364;2023-06-22T10:11:00;95008.91;;;30.71;37.32
33191;BME280;19554;42.652;23.364;2023-06-22T10:13:26;95010.00;;;30.84;37.10
33191;BME280;19554;42.652;23.364;2023-06-22T10:15:51;94973.88;;;30.68;36.72
33191;BME280;19554;42.652;23.364;2023-06-22T10:18:18;95005.53;;;30.98;36.79
33191;BME280;19554;42.652;23.364;2023-06-22T10:20:46;94998.84;;;30.95;36.31
33191;BME280;19554;42.652;23.364;2023-06-22T10:23:11;94999.47;;;31.10;35.81
33191;BME280;19554;42.652;23.364;2023-06-22T10:25:37;95005.66;;;31.21;35.59
33191;BME280;19554;42.652;23.364;2023-06-22T10:28:02;94988.53;;;31.03;35.95
33191;BME280;19554;42.652;23.364;2023-06-22T10:30:28;94973.31;;;30.91;35.66
33191;BME280;19554;42.652;23.364;2023-06-22T10:32:54;94959.19;;;30.85;34.51
33191;BME280;19554;42.652;23.364;2023-06-22T10:35:19;94990.84;;;31.08;34.92
33191;BME280;19554;42.652;23.364;2023-06-22T10:37:46;95001.88;;;31.08;35.51
33191;BME280;19554;42.652;23.364;2023-06-22T10:40:15;95001.03;;;31.11;34.15
33191;BME280;19554;42.652;23.364;2023-06-22T10:42:41;94991.06;;;30.86;34.37
33191;BME280;19554;42.652;23.364;2023-06-22T10:45:07;94982.19;;;30.64;34.94
33191;BME280;19554;42.652;23.364;2023-06-22T10:47:34;94921.53;;;30.27;35.62
33191;BME280;19554;42.652;23.364;2023-06-22T10:49:59;94990.53;;;30.57;35.07
33191;BME280;19554;42.652;23.364;2023-06-22T10:52:25;94985.78;;;30.58;35.94
33191;BME280;19554;42.652;23.364;2023-06-22T10:54:50;94990.78;;;30.70;34.99
33191;BME280;19554;42.652;23.364;2023-06-22T10:57:15;94984.94;;;30.16;35.51
33191;BME280;19554;42.652;23.364;2023-06-22T10:59:41;94988.22;;;29.93;35.11
33191;BME280;19554;42.652;23.364;2023-06-22T11:02:06;94983.97;;;29.81;35.61
33191;BME280;19554;42.652;23.364;2023-06-22T11:04:31;94980.06;;;29.79;35.51
33191;BME280;19554;42.652;23.364;2023-06-22T11:06:57;94983.94;;;29.88;35.78
33191;BME280;19554;42.652;23.364;2023-06-22T11:09:23;94984.63;;;30.03;35.27
33191;BME280;19554;42.652;23.364;2023-06-22T11:11:50;94979.41;;;30.23;34.91
33191;BME280;19554;42.652;23.364;2023-06-22T11:14:16;94975.91;;;30.08;34.76
33191;BME280;19554;42.652;23.364;2023-06-22T11:16:41;94960.53;;;30.14;34.74
33191;BME280;19554;42.652;23.364;2023-06-22T11:19:07;94977.84;;;30.18;35.65
33191;BME280;19554;42.652;23.364;2023-06-22T11:21:32;94971.25;;;30.02;35.32
33191;BME280;19554;42.652;23.364;2023-06-22T11:24:01;94969.09;;;29.75;35.81
33191;BME280;19554;42.652;23.364;2023-06-22T11:26:26;94976.56;;;29.74;35.67
33191;BME280;19554;42.652;23.364;2023-06-22T11:28:55;94965.88;;;29.80;35.75
33191;BME280;19554;42.652;23.364;2023-06-22T11:31:21;94963.47;;;29.89;34.80
33191;BME280;19554;42.652;23.364;2023-06-22T11:33:46;94957.81;;;30.11;35.07
33191;BME280;19554;42.652;23.364;2023-06-22T11:36:13;94950.66;;;30.24;34.44
33191;BME280;19554;42.652;23.364;2023-06-22T11:38:38;94951.75;;;30.37;34.09
33191;BME280;19554;42.652;23.364;2023-06-22T11:41:09;94950.34;;;30.60;33.53
33191;BME280;19554;42.652;23.364;2023-06-22T11:43:34;94966.81;;;30.67;33.58
33191;BME280;19554;42.652;23.364;2023-06-22T11:46:02;94958.25;;;30.58;33.46
33191;BME280;19554;42.652;23.364;2023-06-22T11:48:28;94945.66;;;30.57;34.01
33191;BME280;19554;42.652;23.364;2023-06-22T11:50:53;94950.25;;;30.29;33.65
33191;BME280;19554;42.652;23.364;2023-06-22T11:53:20;94945.09;;;30.31;33.57
33191;BME280;19554;42.652;23.364;2023-06-22T11:55:47;94859.28;;;29.88;33.29
33191;BME280;19554;42.652;23.364;2023-06-22T11:58:12;94874.88;;;30.09;33.15
33191;BME280;19554;42.652;23.364;2023-06-22T12:00:38;94936.41;;;30.36;33.83
33191;BME280;19554;42.652;23.364;2023-06-22T12:03:03;94932.50;;;30.34;33.53
33191;BME280;19554;42.652;23.364;2023-06-22T12:05:29;94934.06;;;30.31;33.52
33191;BME280;19554;42.652;23.364;2023-06-22T12:07:54;94937.34;;;30.19;34.26
33191;BME280;19554;42.652;23.364;2023-06-22T12:10:24;94940.50;;;30.14;34.35
33191;BME280;19554;42.652;23.364;2023-06-22T12:12:50;94942.06;;;30.11;34.16
33191;BME280;19554;42.652;23.364;2023-06-22T12:15:15;94943.63;;;30.16;34.86
33191;BME280;19554;42.652;23.364;2023-06-22T12:17:41;94943.59;;;30.23;34.94
33191;BME280;19554;42.652;23.364;2023-06-22T12:20:07;94889.69;;;29.73;34.51
33191;BME280;19554;42.652;23.364;2023-06-22T12:22:33;94944.16;;;29.96;34.53
33191;BME280;19554;42.652;23.364;2023-06-22T12:24:59;94985.38;;;29.26;38.87
33191;BME280;19554;42.652;23.364;2023-06-22T12:27:25;94940.31;;;29.02;39.98
33191;BME280;19554;42.652;23.364;2023-06-22T12:29:50;94961.50;;;28.98;40.85
33191;BME280;19554;42.652;23.364;2023-06-22T12:32:16;94960.81;;;28.66;41.88
33191;BME280;19554;42.652;23.364;2023-06-22T12:34:42;94984.34;;;28.70;41.80
33191;BME280;19554;42.652;23.364;2023-06-22T12:37:08;94916.91;;;28.08;42.70
33191;BME280;19554;42.652;23.364;2023-06-22T12:39:33;94999.25;;;28.44;42.28
33191;BME280;19554;42.652;23.364;2023-06-22T12:41:59;95000.84;;;28.45;42.71
33191;BME280;19554;42.652;23.364;2023-06-22T12:44:24;95007.13;;;28.39;44.64
33191;BME280;19554;42.652;23.364;2023-06-22T12:46:50;95022.75;;;28.17;46.53
33191;BME280;19554;42.652;23.364;2023-06-22T12:49:15;94922.09;;;26.94;47.45
33191;BME280;19554;42.652;23.364;2023-06-22T12:51:41;95019.44;;;27.43;48.95
33191;BME280;19554;42.652;23.364;2023-06-22T12:54:07;94962.38;;;26.93;48.73